This is the latest recevied weather packets stored in our database for station/object VE6CWS-7. If no packets are shown the sender has not sent any weather packets the latest 10 day(s).
| Time | Temp. | Humidity | Pressure | Rain* | Wind** | Luminosity | Snow |
|---|---|---|---|---|---|---|---|
| 1777814147 | 7.22° C | 58% | 1010.2 hPa | 0 mm | - | - | - |
| 1777813307 | 6.67° C | 61% | 1010.3 hPa | 0 mm | - | - | - |
| 1777812347 | 6.11° C | 65% | 1010.2 hPa | 0 mm | - | - | - |
| 1777811445 | 5.56° C | 65% | 1010.1 hPa | 0 mm | - | - | - |
| 1777810544 | 5° C | 68% | 1010.2 hPa | 0 mm | - | - | - |
| 1777809700 | 5° C | 69% | 1010.3 hPa | 0 mm | - | - | - |
| 1777808741 | 5° C | 70% | 1010.3 hPa | 0 mm | - | - | - |
| 1777807839 | 6.11° C | 67% | 1010.3 hPa | 0 mm | - | - | - |
| 1777806937 | 6.67° C | 68% | 1010.2 hPa | 0 mm | - | - | - |
| 1777806096 | 6.67° C | 68% | 1010.3 hPa | 0 mm | - | - | - |
| 1777805135 | 6.67° C | 69% | 1010.2 hPa | 0 mm | - | - | - |
| 1777804233 | 6.11° C | 73% | 1010.3 hPa | 0 mm | - | - | - |
| 1777803332 | 6.11° C | 77% | 1010.3 hPa | 0 mm | - | - | - |
| 1777802491 | 6.11° C | 79% | 1010 hPa | 0 mm | - | - | - |
| 1777801553 | 5.56° C | 79% | 1010 hPa | 0 mm | - | - | - |
| 1777800649 | 5.56° C | 79% | 1010.1 hPa | 0 mm | - | - | - |
| 1777799753 | 5.56° C | 80% | 1010 hPa | 0 mm | - | - | - |
| 1777798907 | 6.11° C | 79% | 1009.9 hPa | 0 mm | - | - | - |
| 1777797951 | 6.11° C | 78% | 1010.1 hPa | 0 mm | - | - | - |
| 1777797048 | 6.67° C | 77% | 1010.2 hPa | 0 mm | - | - | - |
| 1777796155 | 6.67° C | 77% | 1010.5 hPa | 0 mm | - | - | - |
| 1777795302 | 7.22° C | 75% | 1010.7 hPa | 0 mm | - | - | - |
| 1777794349 | 7.22° C | 75% | 1010.6 hPa | 0 mm | - | - | - |
| 1777793444 | 7.22° C | 74% | 1010.8 hPa | 0 mm | - | - | - |
| 1777792541 | 7.22° C | 74% | 1011 hPa | 0 mm | - | - | - |
* Rain latest hour (hover to see other rain measurements)
** Current wind speed in m/s (hover to see current wind gust speed)